Dianopolis, Brazil
Current Conditions -  °F | °C
As of 12:00 AM on Sunday 25 Jan 2015 (Local Time) from SBPJ Reporting Station
Light Rain Light Rain  
Wind Chill: 75°   Ceiling: 9000
Heat Index: 75°   Visibility: 6mi
Dew Point: 70°   Wind: 0mph
Humidity: 83%   Direction: NA
Pressure: NA   Gusts: NA
Location:  11.63°S, 46.82°W
Report Text: SBPJ 250300Z 00000KT 9000 -RA SCT015 FEW040TCU OVC090 24/21 Q1014 RERA
Loading
Personal Weather Stations






























Interactive Weather Map New forecast layout! Learn more

10-Day Weather Forecast

Advertisements
Track Severe Weather on mobile